Silver Knolls, Nevada
Current Conditions -  °F | °C
As of 7:55 AM on Friday 24 Oct 2014 (Local Time) from KRTS Reporting Station
Clear Clear  
Wind Chill: 39°   Ceiling: Unl
Heat Index: 39°   Visibility: 10mi
Dew Point: 27°   Wind: 3mph
Humidity: 61%   Direction: 110°ESE
Pressure: 30.09"   Gusts: NA
Location:  39.7378°N, 119.889°W
Report Text: KRTS 241455Z AUTO 11003KT 10SM CLR 04/M03 A3009 RMK AO2
Loading
Personal Weather Stations






























Interactive Weather Map
Tropical Storm Tracking
New forecast layout! Learn more

10-Day Weather Forecast

Advertisements
Track Severe Weather on mobile